sensor_id;sensor_type;location;lat;lon;timestamp;P1;durP1;ratioP1;P2;durP2;ratioP2
84007;SDS011;74070;50.948;6.954;2024-02-21T00:00:13;13.40;;;6.03;;
84007;SDS011;74070;50.948;6.954;2024-02-21T00:02:40;12.43;;;5.27;;
84007;SDS011;74070;50.948;6.954;2024-02-21T00:05:06;11.83;;;5.73;;
84007;SDS011;74070;50.948;6.954;2024-02-21T00:07:33;15.17;;;5.73;;
84007;SDS011;74070;50.948;6.954;2024-02-21T00:09:59;16.60;;;6.13;;
84007;SDS011;74070;50.948;6.954;2024-02-21T00:12:26;14.50;;;6.77;;
84007;SDS011;74070;50.948;6.954;2024-02-21T00:14:53;13.57;;;5.07;;
84007;SDS011;74070;50.948;6.954;2024-02-21T00:17:19;16.30;;;6.27;;
84007;SDS011;74070;50.948;6.954;2024-02-21T00:19:46;18.03;;;6.63;;
84007;SDS011;74070;50.948;6.954;2024-02-21T00:22:13;23.37;;;7.83;;
84007;SDS011;74070;50.948;6.954;2024-02-21T00:24:41;18.33;;;5.60;;
84007;SDS011;74070;50.948;6.954;2024-02-21T00:27:08;17.13;;;5.80;;
84007;SDS011;74070;50.948;6.954;2024-02-21T00:29:35;12.73;;;5.43;;
84007;SDS011;74070;50.948;6.954;2024-02-21T00:32:03;12.77;;;6.07;;
84007;SDS011;74070;50.948;6.954;2024-02-21T00:34:30;14.27;;;5.73;;
84007;SDS011;74070;50.948;6.954;2024-02-21T00:36:57;14.67;;;5.50;;
84007;SDS011;74070;50.948;6.954;2024-02-21T00:39:24;14.10;;;5.30;;
84007;SDS011;74070;50.948;6.954;2024-02-21T00:41:52;11.73;;;5.33;;
84007;SDS011;74070;50.948;6.954;2024-02-21T00:44:18;13.23;;;5.07;;
84007;SDS011;74070;50.948;6.954;2024-02-21T00:46:45;17.57;;;5.40;;
84007;SDS011;74070;50.948;6.954;2024-02-21T00:49:11;13.30;;;5.57;;
84007;SDS011;74070;50.948;6.954;2024-02-21T00:51:38;14.53;;;5.50;;
84007;SDS011;74070;50.948;6.954;2024-02-21T00:54:05;11.27;;;4.40;;
84007;SDS011;74070;50.948;6.954;2024-02-21T00:56:32;13.63;;;5.63;;
84007;SDS011;74070;50.948;6.954;2024-02-21T00:58:59;13.63;;;5.90;;
84007;SDS011;74070;50.948;6.954;2024-02-21T01:01:27;11.60;;;4.83;;
84007;SDS011;74070;50.948;6.954;2024-02-21T01:03:53;16.57;;;5.40;;
84007;SDS011;74070;50.948;6.954;2024-02-21T01:06:20;14.77;;;5.00;;
84007;SDS011;74070;50.948;6.954;2024-02-21T01:08:47;15.70;;;5.87;;
84007;SDS011;74070;50.948;6.954;2024-02-21T01:11:15;15.00;;;5.50;;
84007;SDS011;74070;50.948;6.954;2024-02-21T01:13:42;15.43;;;5.57;;
84007;SDS011;74070;50.948;6.954;2024-02-21T01:16:09;13.30;;;5.87;;
84007;SDS011;74070;50.948;6.954;2024-02-21T01:18:37;13.97;;;5.90;;
84007;SDS011;74070;50.948;6.954;2024-02-21T01:21:04;16.70;;;5.40;;
84007;SDS011;74070;50.948;6.954;2024-02-21T01:23:33;18.80;;;5.17;;
84007;SDS011;74070;50.948;6.954;2024-02-21T01:25:59;13.93;;;5.43;;
84007;SDS011;74070;50.948;6.954;2024-02-21T01:28:26;15.23;;;5.40;;
84007;SDS011;74070;50.948;6.954;2024-02-21T01:30:53;15.10;;;5.43;;
84007;SDS011;74070;50.948;6.954;2024-02-21T01:33:19;16.83;;;6.97;;
84007;SDS011;74070;50.948;6.954;2024-02-21T01:35:46;12.83;;;5.73;;
84007;SDS011;74070;50.948;6.954;2024-02-21T01:38:12;13.10;;;5.20;;
84007;SDS011;74070;50.948;6.954;2024-02-21T01:40:39;12.00;;;5.27;;
84007;SDS011;74070;50.948;6.954;2024-02-21T01:43:14;19.47;;;6.00;;
84007;SDS011;74070;50.948;6.954;2024-02-21T01:45:32;15.17;;;6.10;;
84007;SDS011;74070;50.948;6.954;2024-02-21T01:47:59;17.70;;;6.27;;
84007;SDS011;74070;50.948;6.954;2024-02-21T01:50:26;13.77;;;5.70;;
84007;SDS011;74070;50.948;6.954;2024-02-21T01:52:53;15.07;;;5.73;;
84007;SDS011;74070;50.948;6.954;2024-02-21T01:55:21;14.40;;;5.47;;
84007;SDS011;74070;50.948;6.954;2024-02-21T01:57:48;16.57;;;6.33;;
84007;SDS011;74070;50.948;6.954;2024-02-21T02:00:16;14.53;;;5.33;;
84007;SDS011;74070;50.948;6.954;2024-02-21T02:02:42;14.90;;;5.80;;
84007;SDS011;74070;50.948;6.954;2024-02-21T02:05:09;17.77;;;5.43;;
84007;SDS011;74070;50.948;6.954;2024-02-21T02:07:35;16.93;;;6.30;;
84007;SDS011;74070;50.948;6.954;2024-02-21T02:10:02;13.50;;;5.70;;
84007;SDS011;74070;50.948;6.954;2024-02-21T02:12:29;10.40;;;5.17;;
84007;SDS011;74070;50.948;6.954;2024-02-21T02:14:57;13.67;;;6.03;;
84007;SDS011;74070;50.948;6.954;2024-02-21T02:17:23;11.67;;;5.27;;
84007;SDS011;74070;50.948;6.954;2024-02-21T02:19:50;14.00;;;5.50;;
84007;SDS011;74070;50.948;6.954;2024-02-21T02:22:19;14.13;;;5.43;;
84007;SDS011;74070;50.948;6.954;2024-02-21T02:24:43;13.53;;;6.03;;
84007;SDS011;74070;50.948;6.954;2024-02-21T02:27:10;14.73;;;6.07;;
84007;SDS011;74070;50.948;6.954;2024-02-21T02:29:37;14.60;;;6.60;;
84007;SDS011;74070;50.948;6.954;2024-02-21T02:32:03;15.00;;;5.90;;
84007;SDS011;74070;50.948;6.954;2024-02-21T02:34:30;13.80;;;5.70;;
84007;SDS011;74070;50.948;6.954;2024-02-21T02:36:57;12.53;;;5.53;;
84007;SDS011;74070;50.948;6.954;2024-02-21T02:39:23;12.63;;;5.67;;
84007;SDS011;74070;50.948;6.954;2024-02-21T02:41:50;14.70;;;5.53;;
84007;SDS011;74070;50.948;6.954;2024-02-21T02:44:17;12.60;;;5.77;;
84007;SDS011;74070;50.948;6.954;2024-02-21T02:46:45;14.30;;;5.97;;
84007;SDS011;74070;50.948;6.954;2024-02-21T02:49:12;14.33;;;5.50;;
84007;SDS011;74070;50.948;6.954;2024-02-21T02:51:41;12.13;;;5.47;;
84007;SDS011;74070;50.948;6.954;2024-02-21T02:54:07;11.40;;;5.73;;
84007;SDS011;74070;50.948;6.954;2024-02-21T02:56:34;11.17;;;5.80;;
84007;SDS011;74070;50.948;6.954;2024-02-21T02:59:01;14.33;;;5.83;;
84007;SDS011;74070;50.948;6.954;2024-02-21T03:01:28;13.20;;;5.57;;
84007;SDS011;74070;50.948;6.954;2024-02-21T03:03:56;11.63;;;6.50;;
84007;SDS011;74070;50.948;6.954;2024-02-21T03:06:23;14.00;;;5.87;;
84007;SDS011;74070;50.948;6.954;2024-02-21T03:08:50;13.90;;;5.93;;
84007;SDS011;74070;50.948;6.954;2024-02-21T03:11:18;15.40;;;5.77;;
84007;SDS011;74070;50.948;6.954;2024-02-21T03:13:45;16.87;;;6.30;;
84007;SDS011;74070;50.948;6.954;2024-02-21T03:16:12;12.67;;;5.47;;
84007;SDS011;74070;50.948;6.954;2024-02-21T03:18:38;12.43;;;5.07;;
84007;SDS011;74070;50.948;6.954;2024-02-21T03:21:05;13.40;;;5.80;;
84007;SDS011;74070;50.948;6.954;2024-02-21T03:23:31;12.23;;;5.20;;
84007;SDS011;74070;50.948;6.954;2024-02-21T03:25:58;17.20;;;5.77;;
84007;SDS011;74070;50.948;6.954;2024-02-21T03:28:25;13.10;;;5.20;;
84007;SDS011;74070;50.948;6.954;2024-02-21T03:30:51;12.67;;;5.40;;
84007;SDS011;74070;50.948;6.954;2024-02-21T03:33:18;14.00;;;5.37;;
84007;SDS011;74070;50.948;6.954;2024-02-21T03:35:44;10.93;;;4.93;;
84007;SDS011;74070;50.948;6.954;2024-02-21T03:38:12;12.77;;;6.07;;
84007;SDS011;74070;50.948;6.954;2024-02-21T03:40:38;16.27;;;5.50;;
84007;SDS011;74070;50.948;6.954;2024-02-21T03:43:05;15.17;;;4.83;;
84007;SDS011;74070;50.948;6.954;2024-02-21T03:45:32;12.13;;;4.43;;
84007;SDS011;74070;50.948;6.954;2024-02-21T03:48:00;16.07;;;4.97;;
84007;SDS011;74070;50.948;6.954;2024-02-21T03:50:27;17.13;;;5.17;;
84007;SDS011;74070;50.948;6.954;2024-02-21T03:52:54;15.50;;;5.33;;
84007;SDS011;74070;50.948;6.954;2024-02-21T03:55:21;13.23;;;5.17;;
84007;SDS011;74070;50.948;6.954;2024-02-21T03:57:48;12.70;;;5.23;;
84007;SDS011;74070;50.948;6.954;2024-02-21T04:00:14;15.87;;;5.17;;
84007;SDS011;74070;50.948;6.954;2024-02-21T04:02:41;11.60;;;4.97;;
84007;SDS011;74070;50.948;6.954;2024-02-21T04:05:08;13.47;;;5.73;;
84007;SDS011;74070;50.948;6.954;2024-02-21T04:07:34;10.00;;;5.43;;
84007;SDS011;74070;50.948;6.954;2024-02-21T04:10:01;13.90;;;5.40;;
84007;SDS011;74070;50.948;6.954;2024-02-21T04:12:27;10.90;;;5.20;;
84007;SDS011;74070;50.948;6.954;2024-02-21T04:14:54;14.60;;;4.90;;
84007;SDS011;74070;50.948;6.954;2024-02-21T04:17:21;12.93;;;4.83;;
84007;SDS011;74070;50.948;6.954;2024-02-21T04:19:47;11.43;;;4.83;;
84007;SDS011;74070;50.948;6.954;2024-02-21T04:22:15;16.83;;;5.90;;
84007;SDS011;74070;50.948;6.954;2024-02-21T04:24:42;15.20;;;4.97;;
84007;SDS011;74070;50.948;6.954;2024-02-21T04:27:08;13.57;;;6.00;;
84007;SDS011;74070;50.948;6.954;2024-02-21T04:29:35;10.40;;;4.67;;
84007;SDS011;74070;50.948;6.954;2024-02-21T04:32:02;11.80;;;5.00;;
84007;SDS011;74070;50.948;6.954;2024-02-21T04:34:29;10.33;;;5.40;;
84007;SDS011;74070;50.948;6.954;2024-02-21T04:36:55;13.13;;;4.97;;
84007;SDS011;74070;50.948;6.954;2024-02-21T04:39:21;13.67;;;5.90;;
84007;SDS011;74070;50.948;6.954;2024-02-21T04:41:48;8.90;;;4.40;;
84007;SDS011;74070;50.948;6.954;2024-02-21T04:44:15;14.47;;;5.17;;
84007;SDS011;74070;50.948;6.954;2024-02-21T04:46:42;13.83;;;5.33;;
84007;SDS011;74070;50.948;6.954;2024-02-21T04:49:09;11.17;;;4.63;;
84007;SDS011;74070;50.948;6.954;2024-02-21T04:51:35;17.80;;;5.97;;
84007;SDS011;74070;50.948;6.954;2024-02-21T04:54:02;12.27;;;4.20;;
84007;SDS011;74070;50.948;6.954;2024-02-21T04:56:29;8.93;;;5.73;;
84007;SDS011;74070;50.948;6.954;2024-02-21T04:58:55;9.20;;;4.60;;
84007;SDS011;74070;50.948;6.954;2024-02-21T05:01:22;13.50;;;4.93;;
84007;SDS011;74070;50.948;6.954;2024-02-21T05:03:48;10.20;;;4.13;;
84007;SDS011;74070;50.948;6.954;2024-02-21T05:06:15;11.77;;;4.50;;
84007;SDS011;74070;50.948;6.954;2024-02-21T05:08:42;10.90;;;4.53;;
84007;SDS011;74070;50.948;6.954;2024-02-21T05:11:10;14.33;;;5.13;;
84007;SDS011;74070;50.948;6.954;2024-02-21T05:13:37;10.07;;;4.30;;
84007;SDS011;74070;50.948;6.954;2024-02-21T05:16:05;10.20;;;4.23;;
84007;SDS011;74070;50.948;6.954;2024-02-21T05:18:32;13.70;;;4.10;;
84007;SDS011;74070;50.948;6.954;2024-02-21T05:20:58;11.60;;;3.67;;
84007;SDS011;74070;50.948;6.954;2024-02-21T05:23:24;8.60;;;4.10;;
84007;SDS011;74070;50.948;6.954;2024-02-21T05:25:51;13.03;;;4.20;;
84007;SDS011;74070;50.948;6.954;2024-02-21T05:28:18;15.33;;;4.80;;
84007;SDS011;74070;50.948;6.954;2024-02-21T05:30:44;10.37;;;3.80;;
84007;SDS011;74070;50.948;6.954;2024-02-21T05:33:11;11.80;;;4.50;;
84007;SDS011;74070;50.948;6.954;2024-02-21T05:35:37;12.43;;;4.50;;
84007;SDS011;74070;50.948;6.954;2024-02-21T05:38:04;11.63;;;4.47;;
84007;SDS011;74070;50.948;6.954;2024-02-21T05:40:31;10.70;;;4.30;;
84007;SDS011;74070;50.948;6.954;2024-02-21T05:42:57;15.27;;;3.97;;
84007;SDS011;74070;50.948;6.954;2024-02-21T05:45:24;10.47;;;4.20;;
84007;SDS011;74070;50.948;6.954;2024-02-21T05:47:50;11.13;;;4.30;;
84007;SDS011;74070;50.948;6.954;2024-02-21T05:50:17;12.43;;;4.57;;
84007;SDS011;74070;50.948;6.954;2024-02-21T05:52:44;10.97;;;4.40;;
84007;SDS011;74070;50.948;6.954;2024-02-21T05:55:10;12.43;;;4.40;;
84007;SDS011;74070;50.948;6.954;2024-02-21T05:57:37;11.27;;;4.83;;
84007;SDS011;74070;50.948;6.954;2024-02-21T06:00:05;10.53;;;5.57;;
84007;SDS011;74070;50.948;6.954;2024-02-21T06:02:30;12.37;;;4.97;;
84007;SDS011;74070;50.948;6.954;2024-02-21T06:04:57;11.37;;;4.70;;
84007;SDS011;74070;50.948;6.954;2024-02-21T06:07:23;9.53;;;4.77;;
84007;SDS011;74070;50.948;6.954;2024-02-21T06:09:50;14.10;;;6.17;;
84007;SDS011;74070;50.948;6.954;2024-02-21T06:12:17;11.93;;;5.00;;
84007;SDS011;74070;50.948;6.954;2024-02-21T06:14:43;9.43;;;4.23;;
84007;SDS011;74070;50.948;6.954;2024-02-21T06:17:10;14.20;;;5.37;;
84007;SDS011;74070;50.948;6.954;2024-02-21T06:19:39;10.83;;;4.70;;
84007;SDS011;74070;50.948;6.954;2024-02-21T06:22:04;12.73;;;4.53;;
84007;SDS011;74070;50.948;6.954;2024-02-21T06:24:32;13.47;;;5.03;;
84007;SDS011;74070;50.948;6.954;2024-02-21T06:26:59;11.80;;;5.30;;
84007;SDS011;74070;50.948;6.954;2024-02-21T06:29:26;10.67;;;4.50;;
84007;SDS011;74070;50.948;6.954;2024-02-21T06:31:53;13.43;;;4.77;;
84007;SDS011;74070;50.948;6.954;2024-02-21T06:34:20;13.57;;;5.40;;
84007;SDS011;74070;50.948;6.954;2024-02-21T06:36:47;9.53;;;5.20;;
84007;SDS011;74070;50.948;6.954;2024-02-21T06:39:14;12.23;;;5.30;;
84007;SDS011;74070;50.948;6.954;2024-02-21T06:41:40;11.17;;;4.60;;
84007;SDS011;74070;50.948;6.954;2024-02-21T06:44:07;15.63;;;5.50;;
84007;SDS011;74070;50.948;6.954;2024-02-21T06:46:33;10.80;;;4.33;;
84007;SDS011;74070;50.948;6.954;2024-02-21T06:49:00;10.43;;;4.90;;
84007;SDS011;74070;50.948;6.954;2024-02-21T06:51:27;14.33;;;4.90;;
84007;SDS011;74070;50.948;6.954;2024-02-21T06:53:55;9.43;;;4.70;;
84007;SDS011;74070;50.948;6.954;2024-02-21T06:56:23;7.30;;;4.33;;
84007;SDS011;74070;50.948;6.954;2024-02-21T06:58:49;14.57;;;4.33;;
84007;SDS011;74070;50.948;6.954;2024-02-21T07:01:15;10.70;;;4.30;;
84007;SDS011;74070;50.948;6.954;2024-02-21T07:03:42;7.90;;;4.40;;
84007;SDS011;74070;50.948;6.954;2024-02-21T07:06:08;8.17;;;3.73;;
84007;SDS011;74070;50.948;6.954;2024-02-21T07:08:35;10.37;;;4.00;;
84007;SDS011;74070;50.948;6.954;2024-02-21T07:11:02;9.13;;;3.80;;
84007;SDS011;74070;50.948;6.954;2024-02-21T07:13:28;11.63;;;4.43;;
84007;SDS011;74070;50.948;6.954;2024-02-21T07:15:55;10.97;;;3.97;;
84007;SDS011;74070;50.948;6.954;2024-02-21T07:18:21;7.77;;;3.73;;
84007;SDS011;74070;50.948;6.954;2024-02-21T07:20:49;9.00;;;3.77;;
84007;SDS011;74070;50.948;6.954;2024-02-21T07:23:16;9.57;;;4.17;;
84007;SDS011;74070;50.948;6.954;2024-02-21T07:25:43;13.20;;;4.53;;
84007;SDS011;74070;50.948;6.954;2024-02-21T07:28:10;10.60;;;4.23;;
84007;SDS011;74070;50.948;6.954;2024-02-21T07:30:37;5.67;;;3.37;;
84007;SDS011;74070;50.948;6.954;2024-02-21T07:33:03;11.30;;;3.80;;
84007;SDS011;74070;50.948;6.954;2024-02-21T07:35:30;20.53;;;4.33;;
84007;SDS011;74070;50.948;6.954;2024-02-21T07:37:57;10.07;;;3.13;;
84007;SDS011;74070;50.948;6.954;2024-02-21T07:40:23;11.20;;;3.93;;
84007;SDS011;74070;50.948;6.954;2024-02-21T07:42:50;12.70;;;3.90;;
84007;SDS011;74070;50.948;6.954;2024-02-21T07:45:16;9.27;;;3.50;;
84007;SDS011;74070;50.948;6.954;2024-02-21T07:47:44;8.43;;;3.50;;
84007;SDS011;74070;50.948;6.954;2024-02-21T07:50:12;10.93;;;3.67;;
84007;SDS011;74070;50.948;6.954;2024-02-21T07:52:38;7.87;;;4.10;;
84007;SDS011;74070;50.948;6.954;2024-02-21T07:55:05;9.13;;;3.70;;
84007;SDS011;74070;50.948;6.954;2024-02-21T07:57:32;8.40;;;3.93;;
84007;SDS011;74070;50.948;6.954;2024-02-21T07:59:58;10.13;;;3.70;;
84007;SDS011;74070;50.948;6.954;2024-02-21T08:02:25;9.07;;;3.73;;
84007;SDS011;74070;50.948;6.954;2024-02-21T08:04:51;8.47;;;3.63;;
84007;SDS011;74070;50.948;6.954;2024-02-21T08:07:18;11.40;;;3.90;;
84007;SDS011;74070;50.948;6.954;2024-02-21T08:09:45;10.50;;;3.63;;
84007;SDS011;74070;50.948;6.954;2024-02-21T08:12:11;9.40;;;4.07;;
84007;SDS011;74070;50.948;6.954;2024-02-21T08:14:38;9.23;;;3.63;;
84007;SDS011;74070;50.948;6.954;2024-02-21T08:17:04;10.73;;;4.40;;
84007;SDS011;74070;50.948;6.954;2024-02-21T08:19:31;11.33;;;4.40;;
84007;SDS011;74070;50.948;6.954;2024-02-21T08:21:58;12.10;;;4.07;;
84007;SDS011;74070;50.948;6.954;2024-02-21T08:24:24;9.73;;;4.27;;
84007;SDS011;74070;50.948;6.954;2024-02-21T08:26:51;10.17;;;4.00;;
84007;SDS011;74070;50.948;6.954;2024-02-21T08:29:17;8.57;;;4.30;;
84007;SDS011;74070;50.948;6.954;2024-02-21T08:31:44;14.47;;;4.37;;
84007;SDS011;74070;50.948;6.954;2024-02-21T08:34:11;10.43;;;3.80;;
84007;SDS011;74070;50.948;6.954;2024-02-21T08:36:37;10.97;;;3.63;;
84007;SDS011;74070;50.948;6.954;2024-02-21T08:39:04;12.43;;;3.90;;
84007;SDS011;74070;50.948;6.954;2024-02-21T08:41:31;11.00;;;3.77;;
84007;SDS011;74070;50.948;6.954;2024-02-21T08:43:57;8.10;;;3.53;;
84007;SDS011;74070;50.948;6.954;2024-02-21T08:46:24;9.97;;;3.50;;
84007;SDS011;74070;50.948;6.954;2024-02-21T08:48:50;11.20;;;3.67;;
84007;SDS011;74070;50.948;6.954;2024-02-21T08:51:17;14.63;;;4.13;;
84007;SDS011;74070;50.948;6.954;2024-02-21T08:53:45;9.43;;;3.87;;
84007;SDS011;74070;50.948;6.954;2024-02-21T08:56:11;11.83;;;4.13;;
84007;SDS011;74070;50.948;6.954;2024-02-21T08:58:39;12.57;;;4.00;;
84007;SDS011;74070;50.948;6.954;2024-02-21T09:01:06;10.00;;;3.83;;
84007;SDS011;74070;50.948;6.954;2024-02-21T09:03:32;8.63;;;4.10;;
84007;SDS011;74070;50.948;6.954;2024-02-21T09:05:59;11.97;;;3.90;;
84007;SDS011;74070;50.948;6.954;2024-02-21T09:08:27;8.80;;;3.77;;
84007;SDS011;74070;50.948;6.954;2024-02-21T09:10:53;8.97;;;3.53;;
84007;SDS011;74070;50.948;6.954;2024-02-21T09:13:20;10.23;;;3.57;;
84007;SDS011;74070;50.948;6.954;2024-02-21T09:15:47;11.33;;;3.67;;
84007;SDS011;74070;50.948;6.954;2024-02-21T09:18:14;10.87;;;3.50;;
84007;SDS011;74070;50.948;6.954;2024-02-21T09:20:41;6.50;;;3.10;;
84007;SDS011;74070;50.948;6.954;2024-02-21T09:23:08;9.67;;;3.33;;
84007;SDS011;74070;50.948;6.954;2024-02-21T09:25:35;11.17;;;3.87;;
84007;SDS011;74070;50.948;6.954;2024-02-21T09:28:03;7.10;;;3.43;;
84007;SDS011;74070;50.948;6.954;2024-02-21T09:30:30;9.57;;;3.50;;
84007;SDS011;74070;50.948;6.954;2024-02-21T09:32:57;8.07;;;3.33;;
84007;SDS011;74070;50.948;6.954;2024-02-21T09:35:25;8.70;;;3.57;;
84007;SDS011;74070;50.948;6.954;2024-02-21T09:37:52;9.80;;;3.10;;
84007;SDS011;74070;50.948;6.954;2024-02-21T09:40:18;9.07;;;3.20;;
84007;SDS011;74070;50.948;6.954;2024-02-21T09:42:46;8.57;;;3.33;;
84007;SDS011;74070;50.948;6.954;2024-02-21T09:45:20;11.27;;;3.83;;
84007;SDS011;74070;50.948;6.954;2024-02-21T09:50:34;8.27;;;2.93;;
84007;SDS011;74070;50.948;6.954;2024-02-21T09:52:59;9.00;;;2.70;;
84007;SDS011;74070;50.948;6.954;2024-02-21T09:55:26;10.20;;;3.60;;
84007;SDS011;74070;50.948;6.954;2024-02-21T09:57:52;12.13;;;2.93;;
84007;SDS011;74070;50.948;6.954;2024-02-21T10:00:20;6.60;;;3.10;;
84007;SDS011;74070;50.948;6.954;2024-02-21T10:02:48;9.70;;;3.60;;
84007;SDS011;74070;50.948;6.954;2024-02-21T10:05:15;7.00;;;3.20;;
84007;SDS011;74070;50.948;6.954;2024-02-21T10:07:42;10.53;;;3.20;;
84007;SDS011;74070;50.948;6.954;2024-02-21T10:10:10;11.00;;;3.30;;
84007;SDS011;74070;50.948;6.954;2024-02-21T10:12:36;9.00;;;3.67;;
84007;SDS011;74070;50.948;6.954;2024-02-21T10:15:04;6.70;;;3.23;;
84007;SDS011;74070;50.948;6.954;2024-02-21T10:17:32;8.57;;;3.50;;
84007;SDS011;74070;50.948;6.954;2024-02-21T10:22:32;12.30;;;3.60;;
84007;SDS011;74070;50.948;6.954;2024-02-21T10:25:06;9.33;;;3.40;;
84007;SDS011;74070;50.948;6.954;2024-02-21T10:27:27;10.77;;;3.67;;
84007;SDS011;74070;50.948;6.954;2024-02-21T10:29:53;10.27;;;3.63;;
84007;SDS011;74070;50.948;6.954;2024-02-21T10:32:20;9.67;;;3.70;;
84007;SDS011;74070;50.948;6.954;2024-02-21T10:34:47;8.60;;;3.37;;
84007;SDS011;74070;50.948;6.954;2024-02-21T10:37:13;7.97;;;3.30;;
84007;SDS011;74070;50.948;6.954;2024-02-21T10:39:40;9.37;;;3.27;;
84007;SDS011;74070;50.948;6.954;2024-02-21T10:42:08;9.07;;;3.40;;
84007;SDS011;74070;50.948;6.954;2024-02-21T10:44:37;12.87;;;3.13;;
84007;SDS011;74070;50.948;6.954;2024-02-21T10:47:05;9.53;;;3.47;;
84007;SDS011;74070;50.948;6.954;2024-02-21T10:49:30;7.20;;;3.00;;
84007;SDS011;74070;50.948;6.954;2024-02-21T10:52:02;10.95;;;3.90;;
84007;SDS011;74070;50.948;6.954;2024-02-21T10:54:30;6.63;;;2.90;;
84007;SDS011;74070;50.948;6.954;2024-02-21T10:56:55;9.67;;;3.00;;
84007;SDS011;74070;50.948;6.954;2024-02-21T10:59:22;10.40;;;3.33;;
84007;SDS011;74070;50.948;6.954;2024-02-21T11:01:48;13.70;;;3.67;;
84007;SDS011;74070;50.948;6.954;2024-02-21T11:04:15;8.73;;;3.43;;
84007;SDS011;74070;50.948;6.954;2024-02-21T11:06:41;9.33;;;3.00;;
84007;SDS011;74070;50.948;6.954;2024-02-21T11:09:09;7.63;;;3.27;;
84007;SDS011;74070;50.948;6.954;2024-02-21T11:11:38;10.03;;;4.03;;
84007;SDS011;74070;50.948;6.954;2024-02-21T11:14:07;8.20;;;3.67;;
84007;SDS011;74070;50.948;6.954;2024-02-21T11:16:36;6.37;;;2.83;;
84007;SDS011;74070;50.948;6.954;2024-02-21T11:19:04;7.70;;;3.33;;
84007;SDS011;74070;50.948;6.954;2024-02-21T11:21:33;11.30;;;3.27;;
84007;SDS011;74070;50.948;6.954;2024-02-21T11:23:59;8.60;;;3.77;;
84007;SDS011;74070;50.948;6.954;2024-02-21T11:26:27;6.27;;;3.20;;
84007;SDS011;74070;50.948;6.954;2024-02-21T11:28:56;10.60;;;3.50;;
84007;SDS011;74070;50.948;6.954;2024-02-21T11:31:22;7.20;;;3.30;;
84007;SDS011;74070;50.948;6.954;2024-02-21T11:33:49;7.47;;;3.00;;
84007;SDS011;74070;50.948;6.954;2024-02-21T11:38:50;9.33;;;3.30;;
84007;SDS011;74070;50.948;6.954;2024-02-21T11:41:17;9.97;;;3.30;;
84007;SDS011;74070;50.948;6.954;2024-02-21T11:43:43;8.63;;;3.23;;
84007;SDS011;74070;50.948;6.954;2024-02-21T11:46:10;7.87;;;2.80;;
84007;SDS011;74070;50.948;6.954;2024-02-21T11:48:37;9.77;;;3.13;;
84007;SDS011;74070;50.948;6.954;2024-02-21T11:51:04;8.83;;;3.27;;
84007;SDS011;74070;50.948;6.954;2024-02-21T11:53:30;9.53;;;3.37;;
84007;SDS011;74070;50.948;6.954;2024-02-21T11:55:57;10.57;;;4.77;;
84007;SDS011;74070;50.948;6.954;2024-02-21T11:58:24;10.03;;;3.23;;
84007;SDS011;74070;50.948;6.954;2024-02-21T12:00:50;7.40;;;3.27;;
84007;SDS011;74070;50.948;6.954;2024-02-21T12:03:18;8.53;;;3.27;;
84007;SDS011;74070;50.948;6.954;2024-02-21T12:05:44;11.07;;;2.90;;
84007;SDS011;74070;50.948;6.954;2024-02-21T12:08:11;9.77;;;2.97;;
84007;SDS011;74070;50.948;6.954;2024-02-21T12:10:38;8.53;;;3.23;;
84007;SDS011;74070;50.948;6.954;2024-02-21T12:13:06;6.53;;;2.90;;
84007;SDS011;74070;50.948;6.954;2024-02-21T12:15:33;7.07;;;3.33;;
84007;SDS011;74070;50.948;6.954;2024-02-21T12:17:59;9.10;;;3.30;;
84007;SDS011;74070;50.948;6.954;2024-02-21T12:20:26;13.40;;;3.47;;
84007;SDS011;74070;50.948;6.954;2024-02-21T12:22:53;8.33;;;4.00;;
84007;SDS011;74070;50.948;6.954;2024-02-21T12:25:20;10.90;;;3.13;;
84007;SDS011;74070;50.948;6.954;2024-02-21T12:27:46;7.87;;;3.30;;
84007;SDS011;74070;50.948;6.954;2024-02-21T12:30:14;10.03;;;3.63;;
84007;SDS011;74070;50.948;6.954;2024-02-21T12:32:40;9.93;;;3.50;;
84007;SDS011;74070;50.948;6.954;2024-02-21T12:35:07;8.13;;;3.77;;
84007;SDS011;74070;50.948;6.954;2024-02-21T12:37:34;10.00;;;3.40;;
84007;SDS011;74070;50.948;6.954;2024-02-21T12:40:00;9.40;;;3.50;;
84007;SDS011;74070;50.948;6.954;2024-02-21T12:42:27;8.50;;;3.13;;
84007;SDS011;74070;50.948;6.954;2024-02-21T12:44:54;10.97;;;3.60;;
84007;SDS011;74070;50.948;6.954;2024-02-21T12:47:21;8.93;;;3.53;;
84007;SDS011;74070;50.948;6.954;2024-02-21T12:49:48;10.20;;;3.20;;
84007;SDS011;74070;50.948;6.954;2024-02-21T12:52:14;8.90;;;3.47;;
84007;SDS011;74070;50.948;6.954;2024-02-21T12:54:41;5.20;;;2.93;;
84007;SDS011;74070;50.948;6.954;2024-02-21T12:57:08;8.23;;;3.20;;
84007;SDS011;74070;50.948;6.954;2024-02-21T12:59:34;9.90;;;3.13;;
84007;SDS011;74070;50.948;6.954;2024-02-21T13:02:01;7.27;;;3.20;;
84007;SDS011;74070;50.948;6.954;2024-02-21T13:04:27;8.20;;;4.27;;
84007;SDS011;74070;50.948;6.954;2024-02-21T13:06:54;8.90;;;2.83;;
84007;SDS011;74070;50.948;6.954;2024-02-21T13:09:21;7.57;;;3.20;;
84007;SDS011;74070;50.948;6.954;2024-02-21T13:11:47;10.63;;;4.70;;
84007;SDS011;74070;50.948;6.954;2024-02-21T13:14:14;9.33;;;4.00;;
84007;SDS011;74070;50.948;6.954;2024-02-21T13:16:41;7.97;;;3.77;;
84007;SDS011;74070;50.948;6.954;2024-02-21T13:19:07;6.40;;;2.97;;
84007;SDS011;74070;50.948;6.954;2024-02-21T13:21:34;12.57;;;3.30;;
84007;SDS011;74070;50.948;6.954;2024-02-21T13:24:01;5.80;;;2.63;;
84007;SDS011;74070;50.948;6.954;2024-02-21T13:26:27;5.43;;;2.80;;
84007;SDS011;74070;50.948;6.954;2024-02-21T13:28:54;9.43;;;3.93;;
84007;SDS011;74070;50.948;6.954;2024-02-21T13:31:22;14.43;;;5.80;;
84007;SDS011;74070;50.948;6.954;2024-02-21T13:33:48;6.17;;;2.80;;
84007;SDS011;74070;50.948;6.954;2024-02-21T13:36:15;7.57;;;2.93;;
84007;SDS011;74070;50.948;6.954;2024-02-21T13:38:42;7.23;;;3.03;;
84007;SDS011;74070;50.948;6.954;2024-02-21T13:41:08;8.17;;;2.77;;
84007;SDS011;74070;50.948;6.954;2024-02-21T13:43:35;8.03;;;3.20;;
84007;SDS011;74070;50.948;6.954;2024-02-21T13:46:02;5.53;;;2.17;;
84007;SDS011;74070;50.948;6.954;2024-02-21T13:48:30;8.40;;;2.90;;
84007;SDS011;74070;50.948;6.954;2024-02-21T13:50:57;8.73;;;3.77;;
84007;SDS011;74070;50.948;6.954;2024-02-21T13:53:24;8.03;;;3.33;;
84007;SDS011;74070;50.948;6.954;2024-02-21T13:55:50;11.97;;;3.80;;
84007;SDS011;74070;50.948;6.954;2024-02-21T13:58:17;11.63;;;4.07;;
84007;SDS011;74070;50.948;6.954;2024-02-21T14:00:44;8.53;;;3.63;;
84007;SDS011;74070;50.948;6.954;2024-02-21T14:03:11;10.97;;;4.40;;
84007;SDS011;74070;50.948;6.954;2024-02-21T14:05:39;10.93;;;3.33;;
84007;SDS011;74070;50.948;6.954;2024-02-21T14:08:06;7.90;;;3.03;;
84007;SDS011;74070;50.948;6.954;2024-02-21T14:10:32;16.60;;;4.07;;
84007;SDS011;74070;50.948;6.954;2024-02-21T14:12:59;10.30;;;3.13;;
84007;SDS011;74070;50.948;6.954;2024-02-21T14:15:25;8.77;;;2.80;;
84007;SDS011;74070;50.948;6.954;2024-02-21T14:17:52;8.00;;;3.00;;
84007;SDS011;74070;50.948;6.954;2024-02-21T14:20:19;7.63;;;2.73;;
84007;SDS011;74070;50.948;6.954;2024-02-21T14:22:45;7.83;;;3.17;;
84007;SDS011;74070;50.948;6.954;2024-02-21T14:25:13;9.57;;;4.33;;
84007;SDS011;74070;50.948;6.954;2024-02-21T14:27:39;12.80;;;3.77;;
84007;SDS011;74070;50.948;6.954;2024-02-21T14:30:06;8.47;;;3.57;;
84007;SDS011;74070;50.948;6.954;2024-02-21T14:32:33;9.30;;;3.10;;
84007;SDS011;74070;50.948;6.954;2024-02-21T14:34:59;11.03;;;3.53;;
84007;SDS011;74070;50.948;6.954;2024-02-21T14:37:26;7.70;;;3.23;;
84007;SDS011;74070;50.948;6.954;2024-02-21T14:39:53;11.33;;;5.60;;
84007;SDS011;74070;50.948;6.954;2024-02-21T14:42:20;11.07;;;4.37;;